Buoy 55632

sailwx.info

Track history (hours):
 
Tides and Currents Weather Stations Pressure Air Temp Water Temp Dewpoint Dewpoint Depression Visibility Wind Speed Wind Dir Waves Ship Positions

Drifting buoy 55632

Last reported at 2017-Dec-28 20:00 UTC. Time now 2018-Feb-25 15:50 UTC.
Position S 21°22' E 149°17'.
Warning: this ship's position is 58 days out of date.

Barometer 1002.8 mb
Water temperature 25.2 ° C

Date/timePositionNaut miles runAvg speedWind from/ knotsBaromVisibWave heightAir tempDewpointWater temp
2017-Dec-28 20:00S 21°22' E 149°17'1 0.6 1002.8 25.2
2017-Dec-28 19:00S 21°21' E 149°17'1 0.3 1002.1 25.0
2017-Dec-28 17:00S 21°22' E 149°17'0 0.0 1002.1 25.7
2017-Dec-28 16:00S 21°22' E 149°17'0 0.0 1002.4 25.4
2017-Dec-28 13:00S 21°22' E 149°17'0 0.0 1003.8 26.3
2017-Dec-28 12:00S 21°22' E 149°17'0 0.0 1004.0 26.6
2017-Dec-28 11:00S 21°22' E 149°17'1 0.8 1003.5 26.8
2017-Dec-28 10:00S 21°21' E 149°17'1 0.6 1003.1 27.2
2017-Dec-28 09:00S 21°21' E 149°17'0 0.0 1002.7 28.0
2017-Dec-28 08:00S 21°21' E 149°17'1 0.8 1002.1 29.6
2017-Dec-28 07:00S 21°22' E 149°17'0 0.0 1001.2 30.9
2017-Dec-28 06:00S 21°22' E 149°17'1 1.1 1000.9 32.0
2017-Dec-28 05:00S 21°22' E 149°18'0 0.0 1001.3 31.9
2017-Dec-27 23:00S 21°22' E 149°18'1 1.1 1004.1 35.9
2017-Dec-27 22:00S 21°22' E 149°17'0 0.0 1003.6 35.9
2017-Dec-27 21:00S 21°22' E 149°17'1 1.1 1002.7 29.0
2017-Dec-27 20:00S 21°22' E 149°18'1 0.3 1002.0 24.8
2017-Dec-27 18:00S 21°22' E 149°17'0 0.0 1000.9 25.2
2017-Dec-27 17:00S 21°22' E 149°17'0 0.0 1000.6 25.2
2017-Dec-27 16:00S 21°22' E 149°17'0 0.0 1001.0 25.3
2017-Dec-27 12:00S 21°22' E 149°17'0 0.0 1002.2 25.8
2017-Dec-27 11:00S 21°22' E 149°17'1 0.8 1001.8 26.6
2017-Dec-27 10:00S 21°21' E 149°17'1 1.1 1001.2 27.0
2017-Dec-27 09:00S 21°21' E 149°18'1 0.6 1000.7 27.5
2017-Dec-27 08:00S 21°21' E 149°17'0 0.0 1000.1 28.8
2017-Dec-27 07:00S 21°21' E 149°17'1 0.8 999.7 31.2
2017-Dec-27 06:00S 21°22' E 149°17'0 0.0 999.6 32.2
2017-Dec-27 05:00S 21°22' E 149°17'1 0.1 1000.0 31.6
2017-Dec-26 21:00S 21°21' E 149°17'1 0.8 1001.9 28.1
2017-Dec-26 20:00S 21°22' E 149°17'1 0.6 1001.6 24.7
2017-Dec-26 19:00S 21°21' E 149°17'0 0.0 1001.2 24.5
2017-Dec-26 18:00S 21°21' E 149°17'0 0.0 1001.3 24.6
2017-Dec-26 13:00S 21°21' E 149°17'0 0.0 1002.3 25.3
2017-Dec-26 12:00S 21°21' E 149°17'1 0.6 1002.2 25.4
2017-Dec-26 11:00S 21°22' E 149°17'0 0.0 1001.5 25.8
2017-Dec-26 10:00S 21°22' E 149°17'1 0.6 1001.1 26.2
2017-Dec-26 09:00S 21°21' E 149°17'0 0.0 1000.9 26.9
2017-Dec-26 08:00S 21°21' E 149°17'0 0.0 1000.3 29.2
2017-Dec-26 07:00S 21°21' E 149°17'0 0.0 999.9 30.8
2017-Dec-26 06:00S 21°21' E 149°17'0 0.0 1000.1 31.8
2017-Dec-26 04:00S 21°21' E 149°17'1 0.1 1001.1 31.1
2017-Dec-25 23:00S 21°22' E 149°17'1 0.6 1003.1 35.9
2017-Dec-25 22:00S 21°22' E 149°18'0 0.0 1003.3 33.8
2017-Dec-25 21:00S 21°22' E 149°18'1 0.6 1003.5 27.8
2017-Dec-25 20:00S 21°22' E 149°17'1 0.6 1003.0 23.0
2017-Dec-25 19:00S 21°22' E 149°17'1 0.2 1002.3 22.9
2017-Dec-25 16:00S 21°22' E 149°17'0 0.0 1001.1 23.6
2017-Dec-25 15:00S 21°22' E 149°17'0 0.0 1001.0 24.1
2017-Dec-25 11:00S 21°22' E 149°17'1 0.3 1001.1 25.5
2017-Dec-25 09:00S 21°21' E 149°17'0 0.0 1000.8 27.9
2017-Dec-25 08:00S 21°21' E 149°17'0 0.0 1000.1 29.8
2017-Dec-25 06:00S 21°21' E 149°17'0 0.0 1000.2 32.3
2017-Dec-25 05:00S 21°21' E 149°17'1 0.6 1000.6 31.3
2017-Dec-25 04:00S 21°21' E 149°18'0 0.0 1001.2 31.4
2017-Dec-25 00:00S 21°21' E 149°18'1 0.6 1002.6 35.9
2017-Dec-24 23:00S 21°22' E 149°18'0 0.0 1002.8 35.9
2017-Dec-24 21:00S 21°22' E 149°18'1 0.8 1002.0 29.9
2017-Dec-24 20:00S 21°21' E 149°17'0 0.0 1001.3 23.1
2017-Dec-24 19:00S 21°21' E 149°17'1 0.8 1000.6 22.7
2017-Dec-24 18:00S 21°22' E 149°18'0 0.0 1000.3 23.1
2017-Dec-24 17:00S 21°22' E 149°18'0 0.0 1000.1 23.1
2017-Dec-24 16:00S 21°22' E 149°18'1 0.2 1000.5 23.1
2017-Dec-24 12:00S 21°21' E 149°17'0 0.0 1002.5 24.9
2017-Dec-24 11:00S 21°21' E 149°17'0 0.0 1002.3 25.6
2017-Dec-24 09:00S 21°21' E 149°17'0 0.0 1001.6 27.4
2017-Dec-24 08:00S 21°21' E 149°17'0 0.0 1001.2 29.6
2017-Dec-24 06:00S 21°21' E 149°17'1 0.6 1000.5 32.4
2017-Dec-24 05:00S 21°21' E 149°18'0 0.0 1000.7 31.4
2017-Dec-24 04:00S 21°21' E 149°18'0 0.0 1001.3 31.4
2017-Dec-24 00:00S 21°21' E 149°18'0 0.0 1003.7 35.9
2017-Dec-23 23:00S 21°21' E 149°18'1 0.6 1003.7 35.9
2017-Dec-23 21:00S 21°22' E 149°17'1 0.3 1002.8 29.1
2017-Dec-23 19:00S 21°22' E 149°17'0 0.0 1000.9 23.4
2017-Dec-23 17:00S 21°22' E 149°17'0 0.0 1000.2 24.0
2017-Dec-23 16:00S 21°22' E 149°17'0 0.0 1000.3 24.1
2017-Dec-23 15:00S 21°22' E 149°17'1 0.2 1000.7 24.2
2017-Dec-23 12:00S 21°21' E 149°17'0 0.0 1001.5 25.3
2017-Dec-23 11:00S 21°21' E 149°17'1 0.8 1000.9 25.4
2017-Dec-23 10:00S 21°22' E 149°17'1 0.8 1000.6 25.7
2017-Dec-23 09:00S 21°21' E 149°17'0 0.0 1000.5 26.6
2017-Dec-23 06:00S 21°21' E 149°17'1 0.6 999.6 31.2
2017-Dec-23 05:00S 21°21' E 149°17'0 0.0 1000.0 31.4
2017-Dec-23 04:00S 21°21' E 149°17'1 0.3 1000.6 32.5
2017-Dec-23 00:00S 21°22' E 149°18'1 0.6 1002.6 35.9
2017-Dec-22 23:00S 21°21' E 149°18'1 1.1 1002.4 35.9
2017-Dec-22 22:00S 21°21' E 149°17'1 0.8 1002.5 34.9
2017-Dec-22 21:00S 21°22' E 149°17'1 0.6 1002.4 25.4
2017-Dec-22 20:00S 21°22' E 149°18'1 0.3 1002.0 24.3
2017-Dec-22 17:00S 21°21' E 149°17'0 0.0 1000.8 24.2
2017-Dec-22 16:00S 21°21' E 149°17'0 0.0 1000.7 24.2
2017-Dec-22 12:00S 21°21' E 149°17'1 0.6 1002.1 25.9
2017-Dec-22 11:00S 21°21' E 149°18'1 0.6 1001.9 26.1
2017-Dec-22 10:00S 21°21' E 149°17'1 0.6 1001.5 26.6
2017-Dec-22 09:00S 21°22' E 149°17'1 0.6 1001.0 27.0
2017-Dec-22 08:00S 21°21' E 149°17'1 0.8 1000.6 28.7
2017-Dec-22 07:00S 21°22' E 149°17'0 0.0 1000.4 29.9
2017-Dec-22 06:00S 21°22' E 149°17'1 0.8 1000.1 30.7
2017-Dec-22 05:00S 21°21' E 149°17'0 0.0 1000.3 31.5
2017-Dec-22 04:00S 21°21' E 149°17'1 0.1 1000.7 31.1
2017-Dec-21 22:00S 21°21' E 149°17'1 0.8 1003.2 31.0
2017-Dec-21 21:00S 21°22' E 149°17'0 0.0 1003.1 29.6
2017-Dec-21 19:00S 21°22' E 149°17'0 0.0 1002.1 24.3
2017-Dec-21 18:00S 21°22' E 149°17'0 0.0 1001.7 24.6
2017-Dec-21 17:00S 21°22' E 149°17'0 0.0 1001.8 24.6
2017-Dec-21 16:00S 21°22' E 149°17'0 0.0 1002.1 24.8
2017-Dec-21 13:00S 21°22' E 149°17'0 0.0 1003.2 25.8
2017-Dec-21 12:00S 21°22' E 149°17'1 0.8 1003.2 26.3
2017-Dec-21 11:00S 21°21' E 149°18'2 1.8 1002.8 26.6
2017-Dec-21 10:00S 21°22' E 149°16'0 0.0 1002.5 26.7
2017-Dec-21 09:00S 21°22' E 149°16'1 1.3 1002.0 27.3
2017-Dec-21 08:00S 21°21' E 149°17'1 0.8 1001.7 29.3
2017-Dec-21 07:00S 21°22' E 149°17'1 0.3 1001.2 31.4
2017-Dec-21 05:00S 21°22' E 149°17'0 0.0 1001.5 31.4
2017-Dec-20 23:00S 21°22' E 149°17'1 0.8 1003.0 35.9
2017-Dec-20 22:00S 21°21' E 149°18'1 0.3 1002.7 35.9
2017-Dec-20 20:00S 21°21' E 149°17'0 0.0 1002.0 24.3
2017-Dec-20 19:00S 21°21' E 149°17'0 0.0 1001.2 24.0
2017-Dec-20 18:00S 21°21' E 149°17'0 0.0 1000.9 23.9
2017-Dec-20 17:00S 21°21' E 149°17'1 0.1 1000.9 24.0
2017-Dec-20 12:00S 21°21' E 149°18'0 0.0 1003.1 24.6
2017-Dec-20 11:00S 21°21' E 149°18'1 0.6 1002.7 25.0
2017-Dec-20 10:00S 21°21' E 149°17'0 0.0 1002.6 25.6
2017-Dec-20 09:00S 21°21' E 149°17'1 0.6 1001.6 26.6
2017-Dec-20 08:00S 21°22' E 149°17'0 0.0 1001.2 28.4
2017-Dec-20 07:00S 21°22' E 149°17'1 0.6 1000.8 29.4
2017-Dec-20 06:00S 21°21' E 149°17'0 0.0 1000.7 30.4
2017-Dec-20 00:00S 21°21' E 149°17'1 0.8 1003.0 35.9
2017-Dec-19 23:00S 21°22' E 149°17'0 0.0 1002.9 35.9
2017-Dec-19 22:00S 21°22' E 149°17'1 0.8 1002.8 26.4
2017-Dec-19 21:00S 21°21' E 149°17'1 0.6 1002.4 24.6
2017-Dec-19 20:00S 21°22' E 149°17'1 0.6 1001.7 23.6
2017-Dec-19 19:00S 21°22' E 149°18'1 0.3 1000.8 23.6
2017-Dec-19 17:00S 21°22' E 149°17'1 0.6 1000.4 24.3
2017-Dec-19 16:00S 21°22' E 149°18'1 0.1 1000.7 24.6
2017-Dec-19 12:00S 21°22' E 149°17'0 0.0 1002.1 26.0
2017-Dec-19 11:00S 21°22' E 149°17'1 0.6 1001.9 25.8
2017-Dec-19 10:00S 21°22' E 149°17'0 0.0 1001.5 26.1
2017-Dec-19 09:00S 21°22' E 149°17'1 0.4 1001.0 26.8
2017-Dec-19 07:00S 21°21' E 149°17'1 0.8 1000.3 31.4
2017-Dec-19 06:00S 21°22' E 149°17'0 0.0 1000.2 32.1
2017-Dec-19 05:00S 21°22' E 149°17'1 0.1 1000.6 31.0
2017-Dec-18 20:00S 21°21' E 149°17'   1001.4 24.5
Track history (hours):
 
Tides and Currents Weather Stations Pressure Air Temp Water Temp Dewpoint Dewpoint Depression Visibility Wind Speed Wind Dir Waves Ship Positions

Drifting buoy 55632

Last reported at 2017-Dec-28 20:00 UTC. Time now 2018-Feb-25 15:50 UTC.
Position S 21°22' E 149°17'.
Warning: this ship's position is 58 days out of date.

Barometer 1002.8 mb
Water temperature 25.2 ° C

Date/timePositionNaut miles runAvg speedWind from/ knotsBaromVisibWave heightAir tempDewpointWater temp
2017-Dec-28 20:00S 21°22' E 149°17'1 0.6 1002.8 25.2
2017-Dec-28 19:00S 21°21' E 149°17'1 0.3 1002.1 25.0
2017-Dec-28 17:00S 21°22' E 149°17'0 0.0 1002.1 25.7
2017-Dec-28 16:00S 21°22' E 149°17'0 0.0 1002.4 25.4
2017-Dec-28 13:00S 21°22' E 149°17'0 0.0 1003.8 26.3
2017-Dec-28 12:00S 21°22' E 149°17'0 0.0 1004.0 26.6
2017-Dec-28 11:00S 21°22' E 149°17'1 0.8 1003.5 26.8
2017-Dec-28 10:00S 21°21' E 149°17'1 0.6 1003.1 27.2
2017-Dec-28 09:00S 21°21' E 149°17'0 0.0 1002.7 28.0
2017-Dec-28 08:00S 21°21' E 149°17'1 0.8 1002.1 29.6
2017-Dec-28 07:00S 21°22' E 149°17'0 0.0 1001.2 30.9
2017-Dec-28 06:00S 21°22' E 149°17'1 1.1 1000.9 32.0
2017-Dec-28 05:00S 21°22' E 149°18'0 0.0 1001.3 31.9
2017-Dec-27 23:00S 21°22' E 149°18'1 1.1 1004.1 35.9
2017-Dec-27 22:00S 21°22' E 149°17'0 0.0 1003.6 35.9
2017-Dec-27 21:00S 21°22' E 149°17'1 1.1 1002.7 29.0
2017-Dec-27 20:00S 21°22' E 149°18'1 0.3 1002.0 24.8
2017-Dec-27 18:00S 21°22' E 149°17'0 0.0 1000.9 25.2
2017-Dec-27 17:00S 21°22' E 149°17'0 0.0 1000.6 25.2
2017-Dec-27 16:00S 21°22' E 149°17'0 0.0 1001.0 25.3
2017-Dec-27 12:00S 21°22' E 149°17'0 0.0 1002.2 25.8
2017-Dec-27 11:00S 21°22' E 149°17'1 0.8 1001.8 26.6
2017-Dec-27 10:00S 21°21' E 149°17'1 1.1 1001.2 27.0
2017-Dec-27 09:00S 21°21' E 149°18'1 0.6 1000.7 27.5
2017-Dec-27 08:00S 21°21' E 149°17'0 0.0 1000.1 28.8
2017-Dec-27 07:00S 21°21' E 149°17'1 0.8 999.7 31.2
2017-Dec-27 06:00S 21°22' E 149°17'0 0.0 999.6 32.2
2017-Dec-27 05:00S 21°22' E 149°17'1 0.1 1000.0 31.6
2017-Dec-26 21:00S 21°21' E 149°17'1 0.8 1001.9 28.1
2017-Dec-26 20:00S 21°22' E 149°17'1 0.6 1001.6 24.7
2017-Dec-26 19:00S 21°21' E 149°17'0 0.0 1001.2 24.5
2017-Dec-26 18:00S 21°21' E 149°17'0 0.0 1001.3 24.6
2017-Dec-26 13:00S 21°21' E 149°17'0 0.0 1002.3 25.3
2017-Dec-26 12:00S 21°21' E 149°17'1 0.6 1002.2 25.4
2017-Dec-26 11:00S 21°22' E 149°17'0 0.0 1001.5 25.8
2017-Dec-26 10:00S 21°22' E 149°17'1 0.6 1001.1 26.2
2017-Dec-26 09:00S 21°21' E 149°17'0 0.0 1000.9 26.9
2017-Dec-26 08:00S 21°21' E 149°17'0 0.0 1000.3 29.2
2017-Dec-26 07:00S 21°21' E 149°17'0 0.0 999.9 30.8
2017-Dec-26 06:00S 21°21' E 149°17'0 0.0 1000.1 31.8
2017-Dec-26 04:00S 21°21' E 149°17'1 0.1 1001.1 31.1
2017-Dec-25 23:00S 21°22' E 149°17'1 0.6 1003.1 35.9
2017-Dec-25 22:00S 21°22' E 149°18'0 0.0 1003.3 33.8
2017-Dec-25 21:00S 21°22' E 149°18'1 0.6 1003.5 27.8
2017-Dec-25 20:00S 21°22' E 149°17'1 0.6 1003.0 23.0
2017-Dec-25 19:00S 21°22' E 149°17'1 0.2 1002.3 22.9
2017-Dec-25 16:00S 21°22' E 149°17'0 0.0 1001.1 23.6
2017-Dec-25 15:00S 21°22' E 149°17'0 0.0 1001.0 24.1
2017-Dec-25 11:00S 21°22' E 149°17'1 0.3 1001.1 25.5
2017-Dec-25 09:00S 21°21' E 149°17'0 0.0 1000.8 27.9
2017-Dec-25 08:00S 21°21' E 149°17'0 0.0 1000.1 29.8
2017-Dec-25 06:00S 21°21' E 149°17'0 0.0 1000.2 32.3
2017-Dec-25 05:00S 21°21' E 149°17'1 0.6 1000.6 31.3
2017-Dec-25 04:00S 21°21' E 149°18'0 0.0 1001.2 31.4
2017-Dec-25 00:00S 21°21' E 149°18'1 0.6 1002.6 35.9
2017-Dec-24 23:00S 21°22' E 149°18'0 0.0 1002.8 35.9
2017-Dec-24 21:00S 21°22' E 149°18'1 0.8 1002.0 29.9
2017-Dec-24 20:00S 21°21' E 149°17'0 0.0 1001.3 23.1
2017-Dec-24 19:00S 21°21' E 149°17'1 0.8 1000.6 22.7
2017-Dec-24 18:00S 21°22' E 149°18'0 0.0 1000.3 23.1
2017-Dec-24 17:00S 21°22' E 149°18'0 0.0 1000.1 23.1
2017-Dec-24 16:00S 21°22' E 149°18'1 0.2 1000.5 23.1
2017-Dec-24 12:00S 21°21' E 149°17'0 0.0 1002.5 24.9
2017-Dec-24 11:00S 21°21' E 149°17'0 0.0 1002.3 25.6
2017-Dec-24 09:00S 21°21' E 149°17'0 0.0 1001.6 27.4
2017-Dec-24 08:00S 21°21' E 149°17'0 0.0 1001.2 29.6
2017-Dec-24 06:00S 21°21' E 149°17'1 0.6 1000.5 32.4
2017-Dec-24 05:00S 21°21' E 149°18'0 0.0 1000.7 31.4
2017-Dec-24 04:00S 21°21' E 149°18'0 0.0 1001.3 31.4
2017-Dec-24 00:00S 21°21' E 149°18'0 0.0 1003.7 35.9
2017-Dec-23 23:00S 21°21' E 149°18'1 0.6 1003.7 35.9
2017-Dec-23 21:00S 21°22' E 149°17'1 0.3 1002.8 29.1
2017-Dec-23 19:00S 21°22' E 149°17'0 0.0 1000.9 23.4
2017-Dec-23 17:00S 21°22' E 149°17'0 0.0 1000.2 24.0
2017-Dec-23 16:00S 21°22' E 149°17'0 0.0 1000.3 24.1
2017-Dec-23 15:00S 21°22' E 149°17'1 0.2 1000.7 24.2
2017-Dec-23 12:00S 21°21' E 149°17'0 0.0 1001.5 25.3
2017-Dec-23 11:00S 21°21' E 149°17'1 0.8 1000.9 25.4
2017-Dec-23 10:00S 21°22' E 149°17'1 0.8 1000.6 25.7
2017-Dec-23 09:00S 21°21' E 149°17'0 0.0 1000.5 26.6
2017-Dec-23 06:00S 21°21' E 149°17'1 0.6 999.6 31.2
2017-Dec-23 05:00S 21°21' E 149°17'0 0.0 1000.0 31.4
2017-Dec-23 04:00S 21°21' E 149°17'1 0.3 1000.6 32.5
2017-Dec-23 00:00S 21°22' E 149°18'1 0.6 1002.6 35.9
2017-Dec-22 23:00S 21°21' E 149°18'1 1.1 1002.4 35.9
2017-Dec-22 22:00S 21°21' E 149°17'1 0.8 1002.5 34.9
2017-Dec-22 21:00S 21°22' E 149°17'1 0.6 1002.4 25.4
2017-Dec-22 20:00S 21°22' E 149°18'1 0.3 1002.0 24.3
2017-Dec-22 17:00S 21°21' E 149°17'0 0.0 1000.8 24.2
2017-Dec-22 16:00S 21°21' E 149°17'0 0.0 1000.7 24.2
2017-Dec-22 12:00S 21°21' E 149°17'1 0.6 1002.1 25.9
2017-Dec-22 11:00S 21°21' E 149°18'1 0.6 1001.9 26.1
2017-Dec-22 10:00S 21°21' E 149°17'1 0.6 1001.5 26.6
2017-Dec-22 09:00S 21°22' E 149°17'1 0.6 1001.0 27.0
2017-Dec-22 08:00S 21°21' E 149°17'1 0.8 1000.6 28.7
2017-Dec-22 07:00S 21°22' E 149°17'0 0.0 1000.4 29.9
2017-Dec-22 06:00S 21°22' E 149°17'1 0.8 1000.1 30.7
2017-Dec-22 05:00S 21°21' E 149°17'0 0.0 1000.3 31.5
2017-Dec-22 04:00S 21°21' E 149°17'1 0.1 1000.7 31.1
2017-Dec-21 22:00S 21°21' E 149°17'1 0.8 1003.2 31.0
2017-Dec-21 21:00S 21°22' E 149°17'0 0.0 1003.1 29.6
2017-Dec-21 19:00S 21°22' E 149°17'0 0.0 1002.1 24.3
2017-Dec-21 18:00S 21°22' E 149°17'0 0.0 1001.7 24.6
2017-Dec-21 17:00S 21°22' E 149°17'0 0.0 1001.8 24.6
2017-Dec-21 16:00S 21°22' E 149°17'0 0.0 1002.1 24.8
2017-Dec-21 13:00S 21°22' E 149°17'0 0.0 1003.2 25.8
2017-Dec-21 12:00S 21°22' E 149°17'1 0.8 1003.2 26.3
2017-Dec-21 11:00S 21°21' E 149°18'2 1.8 1002.8 26.6
2017-Dec-21 10:00S 21°22' E 149°16'0 0.0 1002.5 26.7
2017-Dec-21 09:00S 21°22' E 149°16'1 1.3 1002.0 27.3
2017-Dec-21 08:00S 21°21' E 149°17'1 0.8 1001.7 29.3
2017-Dec-21 07:00S 21°22' E 149°17'1 0.3 1001.2 31.4
2017-Dec-21 05:00S 21°22' E 149°17'0 0.0 1001.5 31.4
2017-Dec-20 23:00S 21°22' E 149°17'1 0.8 1003.0 35.9
2017-Dec-20 22:00S 21°21' E 149°18'1 0.3 1002.7 35.9
2017-Dec-20 20:00S 21°21' E 149°17'0 0.0 1002.0 24.3
2017-Dec-20 19:00S 21°21' E 149°17'0 0.0 1001.2 24.0
2017-Dec-20 18:00S 21°21' E 149°17'0 0.0 1000.9 23.9
2017-Dec-20 17:00S 21°21' E 149°17'1 0.1 1000.9 24.0
2017-Dec-20 12:00S 21°21' E 149°18'0 0.0 1003.1 24.6
2017-Dec-20 11:00S 21°21' E 149°18'1 0.6 1002.7 25.0
2017-Dec-20 10:00S 21°21' E 149°17'0 0.0 1002.6 25.6
2017-Dec-20 09:00S 21°21' E 149°17'1 0.6 1001.6 26.6
2017-Dec-20 08:00S 21°22' E 149°17'0 0.0 1001.2 28.4
2017-Dec-20 07:00S 21°22' E 149°17'1 0.6 1000.8 29.4
2017-Dec-20 06:00S 21°21' E 149°17'0 0.0 1000.7 30.4
2017-Dec-20 00:00S 21°21' E 149°17'1 0.8 1003.0 35.9
2017-Dec-19 23:00S 21°22' E 149°17'0 0.0 1002.9 35.9
2017-Dec-19 22:00S 21°22' E 149°17'1 0.8 1002.8 26.4
2017-Dec-19 21:00S 21°21' E 149°17'1 0.6 1002.4 24.6
2017-Dec-19 20:00S 21°22' E 149°17'1 0.6 1001.7 23.6
2017-Dec-19 19:00S 21°22' E 149°18'1 0.3 1000.8 23.6
2017-Dec-19 17:00S 21°22' E 149°17'1 0.6 1000.4 24.3
2017-Dec-19 16:00S 21°22' E 149°18'1 0.1 1000.7 24.6
2017-Dec-19 12:00S 21°22' E 149°17'0 0.0 1002.1 26.0
2017-Dec-19 11:00S 21°22' E 149°17'1 0.6 1001.9 25.8
2017-Dec-19 10:00S 21°22' E 149°17'0 0.0 1001.5 26.1
2017-Dec-19 09:00S 21°22' E 149°17'1 0.4 1001.0 26.8
2017-Dec-19 07:00S 21°21' E 149°17'1 0.8 1000.3 31.4
2017-Dec-19 06:00S 21°22' E 149°17'0 0.0 1000.2 32.1
2017-Dec-19 05:00S 21°22' E 149°17'1 0.1 1000.6 31.0
2017-Dec-18 20:00S 21°21' E 149°17'   1001.4 24.5

Dump ship's entire track history